Time;durP1;ratioP1;P1;durP2;ratioP2;P2;SDS_P1;SDS_P2;PMS_P1;PMS_P2;Temp;Humidity;BMP_temperature;BMP_pressure;BME280_temperature;BME280_humidity;BME280_pressure;Samples;Min_cycle;Max_cycle;Signal;HPM_P1;HPM_P2
2021/09/16 00:00:02;;;;;;;0.10;0.10;;;;;;;18.38;59.49;101610.78;4989177;28;20077;-80
2021/09/16 00:02:29;;;;;;;0.10;0.10;;;;;;;18.30;60.15;101614.72;4984317;28;20381;-79
2021/09/16 00:04:55;;;;;;;0.10;0.10;;;;;;;18.29;59.85;101621.88;4981725;28;20094;-79
2021/09/16 00:07:23;;;;;;;0.13;0.13;;;;;;;18.28;60.07;101617.47;4989766;28;20485;-83
2021/09/16 00:09:49;;;;;;;0.10;0.10;;;;;;;18.15;59.91;101619.75;4993239;28;20042;-77
2021/09/16 00:12:16;;;;;;;0.10;0.10;;;;;;;18.09;60.42;101614.63;4982370;28;20057;-84
2021/09/16 00:14:42;;;;;;;0.10;0.10;;;;;;;18.11;60.37;101613.63;4983095;28;20391;-77
2021/09/16 00:17:09;;;;;;;0.10;0.10;;;;;;;18.10;60.44;101609.19;4989584;28;20389;-77
2021/09/16 00:19:35;;;;;;;0.10;0.10;;;;;;;18.02;60.96;101605.97;4981874;28;20066;-77
2021/09/16 00:22:11;;;;;;;0.10;0.10;;;;;;;18.03;61.03;101620.22;4988772;28;20030;-78
2021/09/16 00:24:37;;;;;;;0.10;0.10;;;;;;;17.98;60.50;101616.84;4984055;28;20031;-78
2021/09/16 00:27:04;;;;;;;0.10;0.10;;;;;;;18.00;60.43;101623.91;4988840;28;20026;-79
2021/09/16 00:29:32;;;;;;;0.20;0.20;;;;;;;17.79;61.19;101618.41;4977708;28;20486;-78
2021/09/16 00:31:58;;;;;;;0.10;0.10;;;;;;;17.83;61.44;101613.81;5004089;28;20548;-79
2021/09/16 00:34:25;;;;;;;0.10;0.10;;;;;;;17.82;61.22;101617.44;4983399;28;20022;-77
2021/09/16 00:36:53;;;;;;;0.10;0.10;;;;;;;17.91;60.76;101621.56;4980353;28;20035;-78
2021/09/16 00:39:20;;;;;;;0.10;0.10;;;;;;;17.93;61.03;101630.41;4989030;28;20088;-83
2021/09/16 00:41:50;;;;;;;0.75;0.75;;;;;;;17.99;60.89;101630.19;4977934;28;20030;-77
2021/09/16 00:44:20;;;;;;;;;;;;;;;18.17;60.68;101623.25;5001048;28;20490;-78
2021/09/16 00:46:53;;;;;;;0.10;0.10;;;;;;;18.09;60.49;101631.59;4986135;28;19959;-77
2021/09/16 00:49:20;;;;;;;0.10;0.10;;;;;;;18.06;60.84;101630.84;4992123;28;20382;-78
2021/09/16 00:51:48;;;;;;;0.10;0.10;;;;;;;18.21;60.45;101624.88;5005072;28;20038;-81
2021/09/16 00:54:19;;;;;;;0.10;0.10;;;;;;;18.26;60.30;101624.69;4982039;28;20165;-84
2021/09/16 00:56:51;;;;;;;0.10;0.10;;;;;;;18.30;60.14;101629.00;4996760;28;20038;-78
2021/09/16 00:59:24;;;;;;;0.57;0.57;;;;;;;18.40;59.70;101630.34;4990121;28;20512;-77
2021/09/16 01:01:53;;;;;;;0.10;0.10;;;;;;;18.39;59.46;101633.13;4978528;28;20544;-77
2021/09/16 01:04:21;;;;;;;0.10;0.10;;;;;;;18.39;59.69;101630.44;5002013;28;20034;-77
2021/09/16 01:06:47;;;;;;;0.10;0.10;;;;;;;18.46;59.44;101634.63;4986749;28;20038;-77
2021/09/16 01:09:14;;;;;;;0.10;0.10;;;;;;;18.55;59.24;101623.50;4978331;28;20066;-77
2021/09/16 01:11:41;;;;;;;0.10;0.10;;;;;;;18.58;58.81;101625.22;5005484;28;20030;-76
2021/09/16 01:14:11;;;;;;;0.10;0.10;;;;;;;18.54;58.95;101623.56;4980302;28;20031;-77
2021/09/16 01:16:38;;;;;;;0.10;0.10;;;;;;;18.58;58.70;101622.53;4998002;28;20057;-76
2021/09/16 01:19:04;;;;;;;0.10;0.10;;;;;;;18.68;58.91;101631.03;4986651;28;20046;-77
2021/09/16 01:21:31;;;;;;;0.10;0.10;;;;;;;18.56;58.87;101629.75;4976732;28;20038;-77
2021/09/16 01:23:57;;;;;;;0.10;0.10;;;;;;;18.53;59.07;101630.75;5001689;28;20042;-89
2021/09/16 01:26:23;;;;;;;0.20;0.20;;;;;;;18.58;59.11;101626.06;4985833;28;20035;-93
2021/09/16 01:28:53;;;;;;;0.10;0.10;;;;;;;18.62;58.79;101624.13;4986576;28;20030;-90
2021/09/16 01:31:34;;;;;;;0.10;0.10;;;;;;;18.62;58.84;101637.56;4978140;28;20034;-86
2021/09/16 01:34:04;;;;;;;0.08;0.08;;;;;;;18.54;58.93;101628.94;4987602;28;20097;-90
2021/09/16 01:36:32;;;;;;;0.30;0.30;;;;;;;18.63;58.66;101619.63;4984602;28;20026;-91
2021/09/16 01:39:02;;;;;;;0.10;0.10;;;;;;;18.73;58.30;101621.88;4995780;28;20062;-87
2021/09/16 01:41:28;;;;;;;0.10;0.10;;;;;;;18.72;58.29;101620.13;4975236;28;20062;-91
2021/09/16 01:43:56;;;;;;;0.10;0.10;;;;;;;18.76;58.45;101620.88;4989297;28;20114;-93
2021/09/16 01:46:23;;;;;;;0.10;0.10;;;;;;;18.64;58.41;101616.91;4982600;28;20358;-93
2021/09/16 01:48:52;;;;;;;0.10;0.10;;;;;;;18.72;58.38;101620.13;4994116;28;20030;-87
2021/09/16 01:51:19;;;;;;;0.10;0.10;;;;;;;18.66;58.68;101617.69;5023491;22;20041;-85
2021/09/16 01:53:45;;;;;;;0.10;0.10;;;;;;;18.64;58.63;101619.59;5016860;28;20036;-85
2021/09/16 01:56:11;;;;;;;0.10;0.10;;;;;;;18.65;58.48;101617.75;5025885;28;20030;-85
2021/09/16 01:58:38;;;;;;;0.10;0.10;;;;;;;18.36;58.96;101628.75;5023320;28;20022;-85
2021/09/16 02:01:05;;;;;;;0.20;0.20;;;;;;;18.32;59.14;101624.44;5017670;28;20505;-85
2021/09/16 02:03:31;;;;;;;0.10;0.10;;;;;;;18.25;59.22;101620.25;5021606;28;20100;-84
2021/09/16 02:05:58;;;;;;;0.10;0.10;;;;;;;18.32;59.06;101621.75;5031169;28;20030;-85
2021/09/16 02:08:26;;;;;;;0.10;0.10;;;;;;;18.32;59.07;101618.19;5025058;28;20033;-85
2021/09/16 02:10:52;;;;;;;0.10;0.10;;;;;;;18.34;59.09;101630.59;5023320;28;20485;-85
2021/09/16 02:13:19;;;;;;;0.10;0.10;;;;;;;18.27;59.72;101631.81;5027197;28;20033;-84
2021/09/16 02:15:46;;;;;;;0.20;0.20;;;;;;;18.30;59.61;101631.69;5002527;28;20067;-85
2021/09/16 02:18:12;;;;;;;0.00;0.00;;;;;;;18.39;59.21;101635.78;5022791;28;20029;-84
2021/09/16 02:20:39;;;;;;;0.00;0.00;;;;;;;18.30;59.64;101634.34;5025621;28;20026;-85
2021/09/16 02:23:06;;;;;;;0.10;0.10;;;;;;;18.16;60.27;101642.97;5030176;28;20052;-85
2021/09/16 02:25:32;;;;;;;0.10;0.10;;;;;;;18.17;60.08;101638.44;5017468;28;20026;-85
2021/09/16 02:27:59;;;;;;;0.10;0.10;;;;;;;18.19;59.93;101632.09;5029988;28;20109;-84
2021/09/16 02:30:25;;;;;;;0.10;0.10;;;;;;;18.16;59.95;101634.91;5025005;28;20047;-84
2021/09/16 02:32:51;;;;;;;0.10;0.10;;;;;;;18.27;59.53;101635.34;5022955;28;20030;-85
2021/09/16 02:35:18;;;;;;;0.10;0.10;;;;;;;18.17;59.82;101638.44;5015319;28;20432;-84
2021/09/16 02:37:44;;;;;;;0.10;0.10;;;;;;;18.13;60.00;101644.88;5019214;28;20030;-84
2021/09/16 02:40:11;;;;;;;0.10;0.10;;;;;;;18.05;60.47;101642.50;5028519;28;20064;-84
2021/09/16 02:42:38;;;;;;;0.10;0.10;;;;;;;18.06;60.33;101636.22;5026733;28;20056;-85
2021/09/16 02:45:06;;;;;;;0.20;0.20;;;;;;;18.09;60.38;101639.66;5019925;28;20034;-84
2021/09/16 02:47:33;;;;;;;0.10;0.10;;;;;;;18.17;59.94;101633.97;5017709;28;20030;-84
2021/09/16 02:49:59;;;;;;;0.10;0.10;;;;;;;18.21;59.83;101632.06;5029532;28;20095;-84
2021/09/16 02:52:26;;;;;;;0.10;0.10;;;;;;;18.11;60.42;101629.72;5024460;28;20112;-84
2021/09/16 02:54:52;;;;;;;0.10;0.10;;;;;;;18.09;60.78;101639.66;5022454;28;20030;-84
2021/09/16 02:57:18;;;;;;;0.10;0.10;;;;;;;17.93;61.38;101635.75;5031802;28;20140;-84
2021/09/16 02:59:45;;;;;;;0.10;0.10;;;;;;;17.91;61.37;101635.81;5002752;28;20543;-84
2021/09/16 03:02:11;;;;;;;0.10;0.10;;;;;;;18.06;61.01;101634.38;5027796;28;20105;-84
2021/09/16 03:04:37;;;;;;;0.10;0.10;;;;;;;18.03;61.14;101636.31;5025667;28;20026;-85
2021/09/16 03:07:04;;;;;;;0.10;0.10;;;;;;;18.01;61.36;101647.09;5021017;28;20044;-84
2021/09/16 03:09:30;;;;;;;0.10;0.10;;;;;;;17.99;61.36;101645.41;5031114;28;20120;-84
2021/09/16 03:11:57;;;;;;;0.10;0.10;;;;;;;17.94;61.37;101648.25;5019680;28;20033;-84
2021/09/16 03:14:23;;;;;;;0.10;0.10;;;;;;;18.04;61.03;101644.28;5024771;28;20036;-84
2021/09/16 03:16:49;;;;;;;0.20;0.20;;;;;;;18.04;61.20;101649.66;5027468;28;20033;-84
2021/09/16 03:21:46;;;;;;;0.10;0.10;;;;;;;18.01;61.02;101652.47;5039628;28;20500;-93
2021/09/16 03:24:12;;;;;;;0.10;0.10;;;;;;;17.99;61.09;101657.00;5034977;28;20184;-85
2021/09/16 03:26:38;;;;;;;0.10;0.10;;;;;;;17.94;61.05;101650.94;5035210;28;20503;-93
2021/09/16 03:29:05;;;;;;;0.10;0.10;;;;;;;17.96;60.96;101651.78;5016860;28;20149;-92
2021/09/16 03:31:32;;;;;;;0.20;0.20;;;;;;;17.94;61.09;101648.25;5051447;28;20087;-93
2021/09/16 03:33:58;;;;;;;0.10;0.10;;;;;;;17.80;61.24;101656.81;5040292;28;20058;-88
2021/09/16 03:36:26;;;;;;;0.10;0.10;;;;;;;17.72;61.89;101650.84;5046068;28;20030;-92
2021/09/16 03:38:52;;;;;;;0.10;0.10;;;;;;;17.70;61.72;101658.94;5029365;28;20033;-81
2021/09/16 03:41:18;;;;;;;0.10;0.10;;;;;;;17.77;61.33;101659.63;5038162;28;20040;-78
2021/09/16 03:43:45;;;;;;;0.10;0.10;;;;;;;17.88;60.94;101661.88;5021885;28;20021;-80
2021/09/16 03:46:14;;;;;;;0.10;0.10;;;;;;;17.85;60.96;101664.69;5029671;28;20040;-78
2021/09/16 03:48:44;;;;;;;0.38;0.38;;;;;;;17.70;61.45;101663.44;5027607;28;20424;-80
2021/09/16 03:51:10;;;;;;;0.10;0.10;;;;;;;17.82;60.87;101659.41;5038385;28;20132;-83
2021/09/16 03:53:37;;;;;;;0.10;0.10;;;;;;;17.82;61.20;101665.66;5042677;28;20493;-86
2021/09/16 03:56:03;;;;;;;0.10;0.10;;;;;;;17.78;61.16;101669.38;5029937;28;20382;-80
2021/09/16 03:58:31;;;;;;;0.15;0.15;;;;;;;17.77;61.04;101673.88;5037201;28;20112;-79
2021/09/16 04:00:57;;;;;;;0.10;0.10;;;;;;;17.79;60.83;101666.66;5034080;28;20080;-79
2021/09/16 04:03:25;;;;;;;0.10;0.10;;;;;;;17.78;60.63;101667.59;5050600;28;20373;-88
2021/09/16 04:05:51;;;;;;;0.08;0.08;;;;;;;17.75;60.93;101669.50;5021276;28;20468;-89
2021/09/16 04:08:18;;;;;;;0.10;0.10;;;;;;;17.77;60.38;101667.66;5046471;28;20076;-87
2021/09/16 04:10:45;;;;;;;0.10;0.10;;;;;;;17.68;60.59;101666.16;5046106;28;20494;-91
2021/09/16 04:13:11;;;;;;;0.10;0.10;;;;;;;17.72;60.49;101672.28;5038196;28;20108;-86
2021/09/16 04:15:39;;;;;;;0.10;0.10;;;;;;;17.81;60.63;101671.06;5040344;28;20026;-90
2021/09/16 04:18:08;;;;;;;0.10;0.10;;;;;;;17.84;60.45;101674.50;5036500;28;20043;-91
2021/09/16 04:20:34;;;;;;;0.10;0.10;;;;;;;17.71;60.36;101676.78;5043383;28;20421;-86
2021/09/16 04:23:00;;;;;;;0.10;0.10;;;;;;;17.79;60.45;101682.75;5045205;28;20380;-84
2021/09/16 04:25:27;;;;;;;0.10;0.10;;;;;;;17.82;60.39;101691.59;5038914;28;20121;-86
2021/09/16 04:27:54;;;;;;;0.10;0.10;;;;;;;17.92;59.99;101677.78;5029461;28;20048;-85
2021/09/16 04:30:20;;;;;;;0.10;0.10;;;;;;;17.86;60.22;101677.16;5045442;28;20033;-89
2021/09/16 04:32:46;;;;;;;0.10;0.10;;;;;;;17.94;59.95;101681.34;5045593;28;20044;-91
2021/09/16 04:35:13;;;;;;;0.10;0.10;;;;;;;17.88;60.02;101677.94;5038496;28;20100;-85
2021/09/16 04:37:39;;;;;;;0.10;0.10;;;;;;;17.83;60.42;101683.50;5032168;28;20487;-88
2021/09/16 04:40:09;;;;;;;0.10;0.10;;;;;;;17.88;60.34;101684.22;5040521;28;20123;-87
2021/09/16 04:42:36;;;;;;;0.30;0.30;;;;;;;17.84;60.34;101681.69;5025064;28;20063;-93
2021/09/16 04:45:04;;;;;;;0.10;0.10;;;;;;;17.84;60.22;101676.34;5047567;28;20122;-90
2021/09/16 04:47:31;;;;;;;0.10;0.10;;;;;;;17.85;60.53;101688.81;5037345;28;20033;-86
2021/09/16 04:49:57;;;;;;;0.10;0.10;;;;;;;17.82;60.54;101683.53;5062470;22;20124;-81
2021/09/16 04:52:25;;;;;;;0.20;0.20;;;;;;;17.79;60.25;101681.84;5041579;28;20488;-82
2021/09/16 04:54:51;;;;;;;0.10;0.10;;;;;;;17.84;60.20;101681.69;5040631;28;20025;-82
2021/09/16 04:57:18;;;;;;;0.10;0.10;;;;;;;17.85;60.37;101678.09;5049234;28;20106;-80
2021/09/16 04:59:44;;;;;;;0.10;0.10;;;;;;;17.87;60.33;101681.56;5036164;28;20036;-80
2021/09/16 05:02:10;;;;;;;0.10;0.10;;;;;;;17.86;60.44;101674.47;5046356;28;20503;-80
2021/09/16 05:04:36;;;;;;;0.03;0.03;;;;;;;17.90;60.33;101678.78;5043614;28;20081;-81
2021/09/16 05:07:02;;;;;;;0.08;0.08;;;;;;;17.93;60.32;101684.00;5038665;28;20021;-81
2021/09/16 05:09:28;;;;;;;0.10;0.10;;;;;;;17.93;60.11;101684.00;5049213;28;20033;-81
2021/09/16 05:11:54;;;;;;;0.10;0.10;;;;;;;17.91;60.37;101683.22;5037869;28;20057;-81
2021/09/16 05:14:20;;;;;;;0.10;0.10;;;;;;;17.91;60.37;101681.41;5044795;28;20034;-81
2021/09/16 05:16:47;;;;;;;0.10;0.10;;;;;;;17.93;60.29;101681.34;5037865;28;20107;-81
2021/09/16 05:19:13;;;;;;;0.10;0.10;;;;;;;17.93;60.47;101675.97;5048044;28;20025;-81
2021/09/16 05:21:39;;;;;;;0.10;0.10;;;;;;;17.92;60.26;101688.50;5036035;28;20033;-81
2021/09/16 05:24:05;;;;;;;0.10;0.10;;;;;;;17.91;60.29;101684.09;5046514;28;20140;-83
2021/09/16 05:26:31;;;;;;;0.10;0.10;;;;;;;17.85;60.57;101687.00;5024603;28;20080;-83
2021/09/16 05:28:57;;;;;;;0.10;0.10;;;;;;;17.81;60.58;101689.81;5039272;28;20029;-82
2021/09/16 05:31:24;;;;;;;0.10;0.10;;;;;;;17.80;60.59;101688.97;5049232;28;20083;-81
2021/09/16 05:33:50;;;;;;;0.10;0.10;;;;;;;17.77;60.56;101689.97;5036823;28;20029;-83
2021/09/16 05:36:16;;;;;;;0.10;0.10;;;;;;;17.75;60.50;101697.16;5026325;28;20034;-80
2021/09/16 05:38:42;;;;;;;0.10;0.10;;;;;;;17.75;60.59;101702.53;5044169;28;20040;-82
2021/09/16 05:41:08;;;;;;;0.10;0.10;;;;;;;17.76;60.59;101709.66;5041086;28;20037;-82
2021/09/16 05:43:34;;;;;;;0.10;0.10;;;;;;;17.78;60.65;101715.84;5052807;28;20468;-82
2021/09/16 05:46:00;;;;;;;0.10;0.10;;;;;;;17.78;60.46;101713.16;5042039;28;20029;-82
2021/09/16 05:48:26;;;;;;;0.10;0.10;;;;;;;17.74;60.72;101714.19;5047642;28;20033;-82
2021/09/16 05:50:52;;;;;;;0.10;0.10;;;;;;;17.78;60.55;101712.25;5049124;28;20063;-82
2021/09/16 05:53:19;;;;;;;0.10;0.10;;;;;;;17.68;61.06;101721.56;5039974;28;20155;-82
2021/09/16 05:55:46;;;;;;;0.10;0.10;;;;;;;17.75;61.03;101718.63;5052691;28;20022;-82
2021/09/16 05:58:12;;;;;;;0.10;0.10;;;;;;;17.79;60.83;101725.63;5043813;28;20032;-82
2021/09/16 06:00:38;;;;;;;0.77;0.17;;;;;;;17.83;61.02;101730.88;5045507;28;20025;-81
2021/09/16 06:03:04;;;;;;;0.10;0.10;;;;;;;17.91;60.97;101734.16;5038161;28;20033;-81
2021/09/16 06:05:31;;;;;;;0.85;0.85;;;;;;;17.91;60.92;101734.16;5052681;28;20029;-82
2021/09/16 06:07:57;;;;;;;0.10;0.10;;;;;;;18.02;60.49;101737.34;5041334;28;20021;-80
2021/09/16 06:10:23;;;;;;;0.10;0.10;;;;;;;18.07;60.23;101730.00;5046989;28;20107;-81
2021/09/16 06:12:49;;;;;;;0.10;0.10;;;;;;;18.09;60.25;101733.50;5048384;28;20037;-83
2021/09/16 06:15:15;;;;;;;0.10;0.10;;;;;;;18.02;60.58;101742.72;5039559;28;20393;-81
2021/09/16 06:17:42;;;;;;;0.10;0.10;;;;;;;18.12;60.35;101737.88;5053420;28;20084;-81
2021/09/16 06:20:08;;;;;;;0.10;0.10;;;;;;;18.17;60.27;101745.72;5049657;28;20136;-83
2021/09/16 06:22:35;;;;;;;0.10;0.10;;;;;;;18.14;60.39;101738.69;5035423;28;20026;-81
2021/09/16 06:25:01;;;;;;;0.10;0.10;;;;;;;18.17;60.35;101746.63;5049385;28;20037;-77
2021/09/16 06:27:27;;;;;;;0.10;0.10;;;;;;;18.17;60.40;101735.91;5043024;28;20567;-77
2021/09/16 06:29:53;;;;;;;0.10;0.10;;;;;;;18.15;60.97;101743.13;5050342;28;20384;-77
2021/09/16 06:32:20;;;;;;;0.10;0.10;;;;;;;18.13;61.11;101742.31;5047395;28;20029;-78
2021/09/16 06:34:46;;;;;;;0.10;0.10;;;;;;;18.16;60.94;101749.38;5047440;28;20424;-78
2021/09/16 06:37:12;;;;;;;0.10;0.10;;;;;;;18.17;60.81;101746.63;5039413;28;20392;-78
2021/09/16 06:39:38;;;;;;;0.10;0.10;;;;;;;18.22;60.68;101749.16;5051494;28;20484;-83
2021/09/16 06:42:04;;;;;;;1.13;0.75;;;;;;;18.24;61.09;101749.94;5041833;28;20033;-82
2021/09/16 06:44:31;;;;;;;0.10;0.10;;;;;;;18.30;60.87;101746.16;5045181;28;20033;-83
2021/09/16 06:46:57;;;;;;;0.10;0.10;;;;;;;18.32;60.91;101755.91;5049015;28;20372;-81
2021/09/16 06:49:23;;;;;;;0.10;0.10;;;;;;;18.40;60.75;101761.81;5037834;28;20036;-81
2021/09/16 06:51:49;;;;;;;0.10;0.10;;;;;;;18.45;60.62;101763.47;5040693;28;20118;-82
2021/09/16 06:54:15;;;;;;;0.10;0.10;;;;;;;18.51;60.88;101763.25;5037407;28;20021;-78
2021/09/16 06:56:41;;;;;;;0.10;0.10;;;;;;;18.45;60.62;101760.81;5038206;28;20046;-81
2021/09/16 06:59:08;;;;;;;0.10;0.10;;;;;;;18.56;60.41;101758.56;5049607;28;20480;-81
2021/09/16 07:01:34;;;;;;;0.10;0.10;;;;;;;18.58;60.59;101762.09;5041239;28;20044;-80
2021/09/16 07:04:00;;;;;;;0.10;0.10;;;;;;;18.67;60.21;101764.38;5040815;28;20032;-86
2021/09/16 07:06:27;;;;;;;0.10;0.10;;;;;;;18.71;60.09;101762.47;5046969;28;20025;-80
2021/09/16 07:08:53;;;;;;;0.35;0.35;;;;;;;18.73;59.96;101772.19;5038934;28;20060;-79
2021/09/16 07:11:19;;;;;;;0.10;0.10;;;;;;;18.71;59.88;101763.31;5037731;28;20045;-82
2021/09/16 07:13:45;;;;;;;0.03;0.03;;;;;;;18.80;59.56;101763.91;5015191;28;20029;-83
2021/09/16 07:16:12;;;;;;;0.10;0.10;;;;;;;18.85;59.49;101765.44;5021519;28;20034;-81
2021/09/16 07:18:38;;;;;;;0.10;0.10;;;;;;;18.72;59.01;101765.06;5027282;28;20052;-81
2021/09/16 07:21:04;;;;;;;0.25;0.22;;;;;;;18.94;59.12;101753.53;5022473;28;20029;-82
2021/09/16 07:23:30;;;;;;;0.10;0.10;;;;;;;19.01;58.93;101760.38;5032107;28;20043;-81
2021/09/16 07:25:56;;;;;;;0.10;0.10;;;;;;;19.01;58.19;101763.06;5033450;28;20033;-82
2021/09/16 07:28:22;;;;;;;0.10;0.10;;;;;;;18.97;58.27;101774.88;5033624;28;20043;-82
2021/09/16 07:30:48;;;;;;;0.10;0.10;;;;;;;19.02;58.07;101772.00;5033463;28;20065;-82
2021/09/16 07:33:15;;;;;;;0.17;0.17;;;;;;;19.15;58.05;101772.38;5033219;28;20026;-82
2021/09/16 07:35:41;;;;;;;0.10;0.10;;;;;;;19.15;57.29;101767.00;5033363;28;20033;-82
2021/09/16 07:38:07;;;;;;;0.82;0.82;;;;;;;19.15;57.25;101780.44;5032864;28;20037;-82
2021/09/16 07:40:33;;;;;;;0.10;0.10;;;;;;;19.29;57.30;101770.00;5032967;28;20515;-82
2021/09/16 07:42:59;;;;;;;0.20;0.20;;;;;;;19.36;57.24;101770.59;5033293;28;20567;-81
2021/09/16 07:45:25;;;;;;;0.10;0.10;;;;;;;19.34;56.70;101781.41;5033218;28;20044;-81
2021/09/16 07:47:51;;;;;;;0.55;0.50;;;;;;;19.49;56.57;101776.31;5033323;28;20036;-82
2021/09/16 07:50:18;;;;;;;0.10;0.10;;;;;;;19.42;56.23;101780.22;5033462;28;20034;-80
2021/09/16 07:52:44;;;;;;;0.10;0.10;;;;;;;19.49;56.28;101781.69;5033263;28;20104;-80
2021/09/16 07:55:10;;;;;;;0.10;0.10;;;;;;;19.57;56.06;101776.88;5033240;28;20063;-83
2021/09/16 07:57:36;;;;;;;0.10;0.10;;;;;;;19.64;55.57;101782.84;5032865;28;20480;-80
2021/09/16 08:00:04;;;;;;;0.10;0.10;;;;;;;19.66;55.86;101797.09;5033191;28;20030;-83
2021/09/16 08:02:30;;;;;;;0.10;0.10;;;;;;;19.83;55.49;101781.16;5032210;28;20032;-83
2021/09/16 08:04:56;;;;;;;0.13;0.13;;;;;;;19.93;55.17;101788.81;5033005;28;20108;-82
2021/09/16 08:07:22;;;;;;;0.55;0.55;;;;;;;19.99;55.19;101789.41;5032705;28;20088;-83
2021/09/16 08:09:48;;;;;;;0.10;0.10;;;;;;;20.12;54.89;101799.63;5032625;28;20047;-82
2021/09/16 08:12:15;;;;;;;0.10;0.10;;;;;;;20.04;54.19;101803.53;5032600;28;20029;-81
2021/09/16 08:14:41;;;;;;;0.20;0.20;;;;;;;20.17;54.63;101792.22;5032928;28;20061;-80
2021/09/16 08:17:07;;;;;;;0.10;0.10;;;;;;;20.08;53.99;101798.03;5032751;28;20113;-81
2021/09/16 08:19:39;;;;;;;0.10;0.10;;;;;;;20.28;53.80;101787.22;5032717;28;20591;-83
2021/09/16 08:22:05;;;;;;;0.10;0.10;;;;;;;20.40;53.97;101795.66;5032950;28;20545;-81
2021/09/16 08:24:31;;;;;;;0.10;0.10;;;;;;;20.20;53.35;101790.25;5032669;28;20025;-80
2021/09/16 08:26:57;;;;;;;0.73;0.73;;;;;;;20.28;53.26;101799.81;5032795;28;20080;-81
2021/09/16 08:29:23;;;;;;;0.10;0.10;;;;;;;20.27;52.78;101808.81;5032516;28;20026;-81
2021/09/16 08:31:49;;;;;;;0.10;0.10;;;;;;;20.34;52.72;101804.91;5032677;28;20100;-80
2021/09/16 08:34:15;;;;;;;0.10;0.10;;;;;;;20.27;52.19;101800.75;5032499;28;20417;-81
2021/09/16 08:36:42;;;;;;;0.10;0.10;;;;;;;20.44;53.07;101802.66;5032566;28;20030;-81
2021/09/16 08:39:08;;;;;;;0.10;0.10;;;;;;;20.45;53.12;101807.09;5032702;28;20105;-81
2021/09/16 08:41:36;;;;;;;0.10;0.10;;;;;;;20.49;51.80;101808.72;5032313;28;20464;-81
2021/09/16 08:44:04;;;;;;;0.10;0.10;;;;;;;20.71;51.48;101815.75;5032564;28;20762;-82
2021/09/16 08:46:30;;;;;;;0.10;0.10;;;;;;;20.83;51.86;101815.22;5032453;28;20080;-82
2021/09/16 08:48:56;;;;;;;0.10;0.10;;;;;;;20.87;52.04;101822.19;5032457;28;20026;-82
2021/09/16 08:51:23;;;;;;;0.10;0.10;;;;;;;20.87;51.97;101826.72;5032176;28;20041;-80
2021/09/16 08:53:53;;;;;;;0.10;0.10;;;;;;;20.84;50.50;101830.44;5032474;28;20025;-78
2021/09/16 08:56:20;;;;;;;0.10;0.10;;;;;;;20.93;50.79;101821.91;5032095;28;20132;-82
2021/09/16 08:58:47;;;;;;;0.10;0.10;;;;;;;21.10;50.67;101828.31;5032171;28;20521;-81
2021/09/16 09:01:15;;;;;;;0.10;0.10;;;;;;;21.19;50.75;101833.25;5032043;28;20457;-78
2021/09/16 09:03:42;;;;;;;0.10;0.10;;;;;;;21.44;50.92;101818.53;5014455;28;20068;-81
2021/09/16 09:06:27;;;;;;;0.10;0.10;;;;;;;21.40;50.23;101831.31;5032445;28;20030;-80
2021/09/16 09:09:15;;;;;;;0.65;0.55;;;;;;;21.37;50.03;101835.97;5031961;28;20060;-80
2021/09/16 09:12:03;;;;;;;0.50;0.50;;;;;;;21.37;49.48;101847.66;5014180;28;20029;-81
2021/09/16 09:17:30;;;;;;;0.10;0.10;;;;;;;21.76;50.05;101832.25;5050050;28;20400;-84
2021/09/16 09:20:01;;;;;;;0.05;0.05;;;;;;;21.83;49.60;101822.88;5050511;28;20599;-82
2021/09/16 09:22:33;;;;;;;0.68;0.68;;;;;;;22.14;49.52;101821.25;5049702;28;20040;-84
2021/09/16 09:25:04;;;;;;;0.10;0.10;;;;;;;21.99;49.05;101817.53;5049846;28;20025;-82
2021/09/16 09:27:34;;;;;;;0.08;0.08;;;;;;;21.99;49.25;101822.94;5049695;28;20741;-83
2021/09/16 09:30:23;;;;;;;0.10;0.10;;;;;;;22.00;49.40;101830.09;5049496;28;20108;-81
2021/09/16 09:32:50;;;;;;;0.10;0.10;;;;;;;21.70;49.76;101840.66;5049424;28;20041;-83
2021/09/16 09:35:41;;;;;;;0.10;0.10;;;;;;;21.64;49.01;101831.91;5049397;28;20025;-83
2021/09/16 09:38:21;;;;;;;0.10;0.10;;;;;;;21.69;49.53;101836.22;5049234;28;20033;-82
2021/09/16 09:40:50;;;;;;;0.10;0.10;;;;;;;21.64;49.68;101829.22;5049050;28;20029;-82
2021/09/16 09:43:35;;;;;;;0.10;0.10;;;;;;;21.72;49.82;101830.63;5049273;28;20068;-82
2021/09/16 09:46:20;;;;;;;0.10;0.10;;;;;;;21.72;49.35;101830.63;5049293;28;20041;-83
2021/09/16 09:49:02;;;;;;;0.10;0.10;;;;;;;21.57;49.88;101830.50;5048078;28;20051;-83
2021/09/16 09:51:49;;;;;;;0.10;0.10;;;;;;;21.69;49.89;101839.75;5048969;28;20056;-83
2021/09/16 10:00:10;;;;;;;0.20;0.20;;;;;;;21.94;49.98;101844.78;5085514;28;20414;-80
2021/09/16 10:05:35;;;;;;;0.10;0.10;;;;;;;22.18;49.40;101833.66;5093959;27;1266287;-82
2021/09/16 10:08:16;;;;;;;0.10;0.10;;;;;;;22.40;49.92;101843.31;5110159;28;20474;-82
2021/09/16 10:10:51;;;;;;;0.10;0.10;;;;;;;22.36;48.43;101825.50;5098491;28;20149;-80
2021/09/16 10:13:18;;;;;;;0.10;0.10;;;;;;;22.40;47.99;101827.13;5089847;28;20046;-82
2021/09/16 10:15:46;;;;;;;0.10;0.10;;;;;;;22.28;48.51;101829.50;5089881;28;20099;-80
2021/09/16 10:18:13;;;;;;;0.10;0.10;;;;;;;22.37;48.16;101827.22;5088994;28;20040;-81
2021/09/16 10:20:39;;;;;;;0.10;0.10;;;;;;;22.51;47.99;101835.50;5085088;28;20036;-81
2021/09/16 10:23:08;;;;;;;0.10;0.10;;;;;;;22.67;48.29;101834.63;5075392;28;20044;-83
2021/09/16 10:25:43;;;;;;;0.03;0.03;;;;;;;22.67;47.88;101822.03;5090241;28;20029;-84
2021/09/16 10:28:10;;;;;;;0.00;0.00;;;;;;;22.86;48.64;101824.56;5091346;28;20024;-83
2021/09/16 10:30:42;;;;;;;0.10;0.10;;;;;;;22.97;47.67;101825.78;5089349;28;20021;-86
2021/09/16 10:33:13;;;;;;;;;;;;;;;23.26;48.07;101832.25;5089579;28;20043;-85
2021/09/16 10:35:46;;;;;;;0.10;0.10;;;;;;;23.07;47.66;101832.41;5089780;28;19917;-83
2021/09/16 10:38:48;;;;;;;0.15;0.15;;;;;;;23.34;47.90;101823.69;5089043;28;20149;-84
2021/09/16 10:46:46;;;;;;;0.10;0.10;;;;;;;23.17;46.58;101844.47;5072157;28;20453;-81
2021/09/16 10:54:56;;;;;;;0.43;0.43;;;;;;;23.45;46.59;101828.47;5077214;27;20496;-81
2021/09/16 11:00:12;;;;;;;0.20;0.20;;;;;;;23.36;46.43;101838.00;5069029;28;20758;-83
2021/09/16 11:05:18;;;;;;;0.57;0.57;;;;;;;23.45;45.49;101832.03;5096741;27;1263691;-79
2021/09/16 11:13:37;;;;;;;0.10;0.10;;;;;;;23.52;45.75;101825.31;5069078;28;20457;-82
2021/09/16 11:16:04;;;;;;;0.10;0.10;;;;;;;23.12;45.84;101833.00;5069558;28;20072;-82
2021/09/16 11:18:30;;;;;;;0.10;0.10;;;;;;;23.06;46.24;101836.94;5069417;28;20082;-83
2021/09/16 11:21:02;;;;;;;0.10;0.10;;;;;;;23.26;45.96;101835.84;5069034;28;20037;-82
2021/09/16 11:23:39;;;;;;;0.10;0.10;;;;;;;23.47;45.02;101830.13;5069492;28;20029;-84
2021/09/16 11:26:11;;;;;;;0.10;0.10;;;;;;;23.26;45.58;101832.25;5069361;28;20544;-87
2021/09/16 11:28:38;;;;;;;0.10;0.10;;;;;;;23.26;45.50;101832.25;5069440;28;20307;-83
2021/09/16 11:31:04;;;;;;;0.10;0.10;;;;;;;23.23;45.85;101833.28;5069198;28;20025;-83
2021/09/16 11:33:30;;;;;;;0.10;0.10;;;;;;;23.02;45.74;101829.97;5069151;28;20041;-83
2021/09/16 11:36:06;;;;;;;0.10;0.10;;;;;;;23.25;45.94;101831.38;5069379;28;20351;-83
2021/09/16 11:38:32;;;;;;;0.10;0.10;;;;;;;23.57;45.61;101825.91;5069104;28;20029;-86
2021/09/16 11:41:03;;;;;;;0.22;0.22;;;;;;;23.64;45.21;101833.66;5069265;28;20067;-82
2021/09/16 11:43:30;;;;;;;0.20;0.20;;;;;;;23.87;44.84;101833.13;5068928;28;20024;-82
2021/09/16 11:45:56;;;;;;;0.10;0.10;;;;;;;23.84;44.79;101825.22;5068771;28;20032;-82
2021/09/16 11:48:25;;;;;;;0.03;0.03;;;;;;;24.04;45.04;101815.03;5068761;28;20036;-83
2021/09/16 11:50:53;;;;;;;0.10;0.10;;;;;;;24.06;44.19;101822.09;5068456;28;20028;-83
2021/09/16 11:53:24;;;;;;;0.20;0.20;;;;;;;24.11;45.01;101813.66;5068702;28;20029;-83
2021/09/16 11:55:54;;;;;;;0.10;0.10;;;;;;;23.99;43.13;101826.16;5068677;28;20396;-83
2021/09/16 11:58:24;;;;;;;0.20;0.20;;;;;;;23.83;44.47;101830.72;5068703;28;20035;-84
2021/09/16 12:00:56;;;;;;;0.10;0.10;;;;;;;23.82;44.47;101819.00;5068416;28;20463;-83
2021/09/16 12:03:25;;;;;;;0.15;0.15;;;;;;;24.20;44.65;101814.94;5068620;28;20391;-84
2021/09/16 12:14:04;;;;;;;0.10;0.10;;;;;;;25.01;43.74;101827.88;5068044;28;20461;-86